sensor_id;sensor_type;location;lat;lon;timestamp;P1;durP1;ratioP1;P2;durP2;ratioP2
15094;SDS011;7648;52.264;9.632;2022-10-16T00:03:49;0.60;;;0.60;;
15094;SDS011;7648;52.264;9.632;2022-10-16T00:07:52;0.83;;;0.83;;
15094;SDS011;7648;52.264;9.632;2022-10-16T00:11:54;0.70;;;0.70;;
15094;SDS011;7648;52.264;9.632;2022-10-16T00:15:57;0.87;;;0.87;;
15094;SDS011;7648;52.264;9.632;2022-10-16T00:19:59;0.80;;;0.80;;
15094;SDS011;7648;52.264;9.632;2022-10-16T00:24:03;0.70;;;0.70;;
15094;SDS011;7648;52.264;9.632;2022-10-16T00:28:08;1.33;;;0.80;;
15094;SDS011;7648;52.264;9.632;2022-10-16T00:32:10;0.70;;;0.70;;
15094;SDS011;7648;52.264;9.632;2022-10-16T00:36:12;1.00;;;1.00;;
15094;SDS011;7648;52.264;9.632;2022-10-16T00:40:18;1.53;;;0.90;;
15094;SDS011;7648;52.264;9.632;2022-10-16T00:48:46;1.00;;;1.00;;
15094;SDS011;7648;52.264;9.632;2022-10-16T00:52:52;1.77;;;1.67;;
15094;SDS011;7648;52.264;9.632;2022-10-16T00:56:57;1.73;;;1.63;;
15094;SDS011;7648;52.264;9.632;2022-10-16T01:01:02;1.20;;;1.10;;
15094;SDS011;7648;52.264;9.632;2022-10-16T01:05:04;1.10;;;1.10;;
15094;SDS011;7648;52.264;9.632;2022-10-16T01:09:10;1.10;;;1.10;;
15094;SDS011;7648;52.264;9.632;2022-10-16T01:13:18;1.47;;;1.40;;
15094;SDS011;7648;52.264;9.632;2022-10-16T01:17:27;1.30;;;1.23;;
15094;SDS011;7648;52.264;9.632;2022-10-16T01:21:37;1.00;;;1.00;;
15094;SDS011;7648;52.264;9.632;2022-10-16T01:30:12;1.67;;;1.57;;
15094;SDS011;7648;52.264;9.632;2022-10-16T01:34:18;2.20;;;1.70;;
15094;SDS011;7648;52.264;9.632;2022-10-16T01:38:26;1.63;;;1.53;;
15094;SDS011;7648;52.264;9.632;2022-10-16T01:42:34;1.57;;;1.47;;
15094;SDS011;7648;52.264;9.632;2022-10-16T01:46:41;1.10;;;1.10;;
15094;SDS011;7648;52.264;9.632;2022-10-16T01:50:56;2.30;;;2.20;;
15094;SDS011;7648;52.264;9.632;2022-10-16T01:55:02;1.53;;;1.43;;
15094;SDS011;7648;52.264;9.632;2022-10-16T01:59:07;0.90;;;0.90;;
15094;SDS011;7648;52.264;9.632;2022-10-16T02:03:14;2.43;;;1.20;;
15094;SDS011;7648;52.264;9.632;2022-10-16T02:07:19;1.20;;;1.20;;
15094;SDS011;7648;52.264;9.632;2022-10-16T02:11:21;1.33;;;1.10;;
15094;SDS011;7648;52.264;9.632;2022-10-16T02:15:23;1.73;;;1.27;;
15094;SDS011;7648;52.264;9.632;2022-10-16T02:19:27;1.57;;;1.10;;
15094;SDS011;7648;52.264;9.632;2022-10-16T02:23:30;1.27;;;1.27;;
15094;SDS011;7648;52.264;9.632;2022-10-16T02:27:40;1.17;;;1.17;;
15094;SDS011;7648;52.264;9.632;2022-10-16T02:31:54;1.40;;;1.30;;
15094;SDS011;7648;52.264;9.632;2022-10-16T02:36:01;1.13;;;1.13;;
15094;SDS011;7648;52.264;9.632;2022-10-16T02:40:04;1.50;;;1.40;;
15094;SDS011;7648;52.264;9.632;2022-10-16T02:44:07;1.23;;;1.23;;
15094;SDS011;7648;52.264;9.632;2022-10-16T02:48:09;1.73;;;1.40;;
15094;SDS011;7648;52.264;9.632;2022-10-16T02:52:12;1.30;;;1.30;;
15094;SDS011;7648;52.264;9.632;2022-10-16T02:56:14;1.60;;;1.60;;
15094;SDS011;7648;52.264;9.632;2022-10-16T03:00:16;1.20;;;1.20;;
15094;SDS011;7648;52.264;9.632;2022-10-16T03:04:19;1.60;;;1.50;;
15094;SDS011;7648;52.264;9.632;2022-10-16T03:08:22;1.07;;;1.07;;
15094;SDS011;7648;52.264;9.632;2022-10-16T03:12:25;1.30;;;1.30;;
15094;SDS011;7648;52.264;9.632;2022-10-16T03:16:27;1.40;;;1.30;;
15094;SDS011;7648;52.264;9.632;2022-10-16T03:20:29;1.00;;;1.00;;
15094;SDS011;7648;52.264;9.632;2022-10-16T03:24:32;2.07;;;1.30;;
15094;SDS011;7648;52.264;9.632;2022-10-16T03:28:34;1.40;;;1.40;;
15094;SDS011;7648;52.264;9.632;2022-10-16T03:32:36;1.20;;;1.20;;
15094;SDS011;7648;52.264;9.632;2022-10-16T03:36:38;2.37;;;1.87;;
15094;SDS011;7648;52.264;9.632;2022-10-16T03:40:42;3.60;;;3.50;;
15094;SDS011;7648;52.264;9.632;2022-10-16T03:44:44;3.23;;;3.03;;
15094;SDS011;7648;52.264;9.632;2022-10-16T03:48:46;3.60;;;3.40;;
15094;SDS011;7648;52.264;9.632;2022-10-16T03:52:47;2.60;;;2.50;;
15094;SDS011;7648;52.264;9.632;2022-10-16T03:56:51;2.50;;;2.30;;
15094;SDS011;7648;52.264;9.632;2022-10-16T04:00:53;1.27;;;1.27;;
15094;SDS011;7648;52.264;9.632;2022-10-16T04:04:55;1.90;;;1.80;;
15094;SDS011;7648;52.264;9.632;2022-10-16T04:08:57;1.73;;;1.70;;
15094;SDS011;7648;52.264;9.632;2022-10-16T04:13:00;2.37;;;1.30;;
15094;SDS011;7648;52.264;9.632;2022-10-16T04:17:02;1.23;;;1.23;;
15094;SDS011;7648;52.264;9.632;2022-10-16T04:21:04;1.90;;;1.80;;
15094;SDS011;7648;52.264;9.632;2022-10-16T04:25:07;1.60;;;1.50;;
15094;SDS011;7648;52.264;9.632;2022-10-16T04:29:11;2.70;;;1.40;;
15094;SDS011;7648;52.264;9.632;2022-10-16T04:33:13;1.60;;;1.50;;
15094;SDS011;7648;52.264;9.632;2022-10-16T04:37:15;1.80;;;1.70;;
15094;SDS011;7648;52.264;9.632;2022-10-16T04:41:17;2.27;;;2.17;;
15094;SDS011;7648;52.264;9.632;2022-10-16T04:45:20;1.30;;;1.30;;
15094;SDS011;7648;52.264;9.632;2022-10-16T04:49:22;1.40;;;1.40;;
15094;SDS011;7648;52.264;9.632;2022-10-16T04:53:24;1.30;;;1.30;;
15094;SDS011;7648;52.264;9.632;2022-10-16T04:57:26;1.30;;;1.30;;
15094;SDS011;7648;52.264;9.632;2022-10-16T05:01:29;1.20;;;1.20;;
15094;SDS011;7648;52.264;9.632;2022-10-16T05:05:31;1.00;;;1.00;;
15094;SDS011;7648;52.264;9.632;2022-10-16T05:09:33;1.63;;;1.53;;
15094;SDS011;7648;52.264;9.632;2022-10-16T05:13:35;1.60;;;1.50;;
15094;SDS011;7648;52.264;9.632;2022-10-16T05:17:38;1.00;;;1.00;;
15094;SDS011;7648;52.264;9.632;2022-10-16T05:21:40;1.10;;;1.10;;
15094;SDS011;7648;52.264;9.632;2022-10-16T05:25:42;1.03;;;1.03;;
15094;SDS011;7648;52.264;9.632;2022-10-16T05:29:44;1.33;;;1.10;;
15094;SDS011;7648;52.264;9.632;2022-10-16T05:33:48;0.90;;;0.90;;
15094;SDS011;7648;52.264;9.632;2022-10-16T05:37:50;0.87;;;0.87;;
15094;SDS011;7648;52.264;9.632;2022-10-16T05:41:52;1.00;;;1.00;;
15094;SDS011;7648;52.264;9.632;2022-10-16T05:45:54;1.37;;;1.37;;
15094;SDS011;7648;52.264;9.632;2022-10-16T05:49:59;1.10;;;1.10;;
15094;SDS011;7648;52.264;9.632;2022-10-16T05:54:00;4.47;;;1.57;;
15094;SDS011;7648;52.264;9.632;2022-10-16T05:58:02;2.00;;;1.90;;
15094;SDS011;7648;52.264;9.632;2022-10-16T06:02:05;4.20;;;3.33;;
15094;SDS011;7648;52.264;9.632;2022-10-16T06:06:08;5.90;;;4.73;;
15094;SDS011;7648;52.264;9.632;2022-10-16T06:10:11;4.63;;;4.03;;
15094;SDS011;7648;52.264;9.632;2022-10-16T06:14:13;3.30;;;3.00;;
15094;SDS011;7648;52.264;9.632;2022-10-16T06:18:15;3.53;;;3.13;;
15094;SDS011;7648;52.264;9.632;2022-10-16T06:22:18;2.53;;;2.33;;
15094;SDS011;7648;52.264;9.632;2022-10-16T06:26:21;2.53;;;2.33;;
15094;SDS011;7648;52.264;9.632;2022-10-16T06:30:24;2.50;;;2.10;;
15094;SDS011;7648;52.264;9.632;2022-10-16T06:34:26;2.30;;;2.13;;
15094;SDS011;7648;52.264;9.632;2022-10-16T06:38:29;2.63;;;2.53;;
15094;SDS011;7648;52.264;9.632;2022-10-16T06:42:32;2.23;;;2.10;;
15094;SDS011;7648;52.264;9.632;2022-10-16T06:46:33;2.63;;;2.43;;
15094;SDS011;7648;52.264;9.632;2022-10-16T06:50:36;1.87;;;1.77;;
15094;SDS011;7648;52.264;9.632;2022-10-16T06:54:39;4.73;;;1.90;;
15094;SDS011;7648;52.264;9.632;2022-10-16T06:58:41;2.20;;;2.10;;
15094;SDS011;7648;52.264;9.632;2022-10-16T07:02:43;1.80;;;1.70;;
15094;SDS011;7648;52.264;9.632;2022-10-16T07:06:45;3.17;;;1.80;;
15094;SDS011;7648;52.264;9.632;2022-10-16T07:10:57;1.60;;;1.47;;
15094;SDS011;7648;52.264;9.632;2022-10-16T07:14:59;10.70;;;9.33;;
15094;SDS011;7648;52.264;9.632;2022-10-16T07:19:01;3.30;;;3.10;;
15094;SDS011;7648;52.264;9.632;2022-10-16T07:23:03;2.10;;;2.00;;
15094;SDS011;7648;52.264;9.632;2022-10-16T07:27:07;1.80;;;1.70;;
15094;SDS011;7648;52.264;9.632;2022-10-16T07:31:10;1.77;;;1.67;;
15094;SDS011;7648;52.264;9.632;2022-10-16T07:35:13;1.90;;;1.80;;
15094;SDS011;7648;52.264;9.632;2022-10-16T07:39:15;2.00;;;1.90;;
15094;SDS011;7648;52.264;9.632;2022-10-16T07:43:18;1.50;;;1.50;;
15094;SDS011;7648;52.264;9.632;2022-10-16T07:47:20;1.30;;;1.30;;
15094;SDS011;7648;52.264;9.632;2022-10-16T07:51:23;1.40;;;1.40;;
15094;SDS011;7648;52.264;9.632;2022-10-16T07:55:26;1.97;;;1.87;;
15094;SDS011;7648;52.264;9.632;2022-10-16T07:59:29;1.53;;;1.47;;
15094;SDS011;7648;52.264;9.632;2022-10-16T08:03:31;1.30;;;1.30;;
15094;SDS011;7648;52.264;9.632;2022-10-16T08:07:33;1.10;;;1.10;;
15094;SDS011;7648;52.264;9.632;2022-10-16T08:11:35;1.03;;;1.03;;
15094;SDS011;7648;52.264;9.632;2022-10-16T08:15:38;1.30;;;1.00;;
15094;SDS011;7648;52.264;9.632;2022-10-16T08:19:43;1.30;;;1.30;;
15094;SDS011;7648;52.264;9.632;2022-10-16T08:23:46;0.90;;;0.90;;
15094;SDS011;7648;52.264;9.632;2022-10-16T08:27:48;1.07;;;1.07;;
15094;SDS011;7648;52.264;9.632;2022-10-16T08:31:51;0.90;;;0.90;;
15094;SDS011;7648;52.264;9.632;2022-10-16T08:35:53;1.30;;;1.30;;
15094;SDS011;7648;52.264;9.632;2022-10-16T08:39:55;1.00;;;1.00;;
15094;SDS011;7648;52.264;9.632;2022-10-16T08:44:11;1.27;;;1.10;;
15094;SDS011;7648;52.264;9.632;2022-10-16T08:48:40;1.70;;;1.70;;
15094;SDS011;7648;52.264;9.632;2022-10-16T08:52:47;1.10;;;1.10;;
15094;SDS011;7648;52.264;9.632;2022-10-16T08:56:49;0.90;;;0.90;;
15094;SDS011;7648;52.264;9.632;2022-10-16T09:00:53;1.17;;;1.00;;
15094;SDS011;7648;52.264;9.632;2022-10-16T09:05:09;1.10;;;1.10;;
15094;SDS011;7648;52.264;9.632;2022-10-16T09:09:28;0.90;;;0.90;;
15094;SDS011;7648;52.264;9.632;2022-10-16T09:13:47;1.27;;;1.20;;
15094;SDS011;7648;52.264;9.632;2022-10-16T09:17:59;1.00;;;1.00;;
15094;SDS011;7648;52.264;9.632;2022-10-16T09:22:11;1.00;;;1.00;;
15094;SDS011;7648;52.264;9.632;2022-10-16T09:26:15;1.33;;;0.80;;
15094;SDS011;7648;52.264;9.632;2022-10-16T09:30:20;1.20;;;1.03;;
15094;SDS011;7648;52.264;9.632;2022-10-16T09:34:24;3.23;;;1.00;;
15094;SDS011;7648;52.264;9.632;2022-10-16T09:38:33;1.10;;;0.87;;
15094;SDS011;7648;52.264;9.632;2022-10-16T09:42:37;0.70;;;0.70;;
15094;SDS011;7648;52.264;9.632;2022-10-16T09:46:39;0.77;;;0.77;;
15094;SDS011;7648;52.264;9.632;2022-10-16T09:50:41;0.50;;;0.50;;
15094;SDS011;7648;52.264;9.632;2022-10-16T09:54:50;0.80;;;0.80;;
15094;SDS011;7648;52.264;9.632;2022-10-16T09:58:53;0.80;;;0.80;;
15094;SDS011;7648;52.264;9.632;2022-10-16T10:02:56;0.60;;;0.60;;
15094;SDS011;7648;52.264;9.632;2022-10-16T10:06:59;0.60;;;0.60;;
15094;SDS011;7648;52.264;9.632;2022-10-16T10:11:02;0.87;;;0.80;;
15094;SDS011;7648;52.264;9.632;2022-10-16T10:15:05;0.83;;;0.57;;
15094;SDS011;7648;52.264;9.632;2022-10-16T10:19:13;0.40;;;0.40;;
15094;SDS011;7648;52.264;9.632;2022-10-16T10:23:20;0.83;;;0.80;;
15094;SDS011;7648;52.264;9.632;2022-10-16T10:27:27;0.63;;;0.63;;
15094;SDS011;7648;52.264;9.632;2022-10-16T10:31:37;0.63;;;0.60;;
15094;SDS011;7648;52.264;9.632;2022-10-16T10:35:47;1.30;;;0.70;;
15094;SDS011;7648;52.264;9.632;2022-10-16T10:39:53;0.40;;;0.40;;
15094;SDS011;7648;52.264;9.632;2022-10-16T10:44:08;0.43;;;0.43;;
15094;SDS011;7648;52.264;9.632;2022-10-16T10:48:31;1.43;;;0.53;;
15094;SDS011;7648;52.264;9.632;2022-10-16T10:52:52;1.00;;;0.50;;
15094;SDS011;7648;52.264;9.632;2022-10-16T10:57:02;0.73;;;0.50;;
15094;SDS011;7648;52.264;9.632;2022-10-16T11:01:12;0.40;;;0.40;;
15094;SDS011;7648;52.264;9.632;2022-10-16T11:05:27;0.50;;;0.50;;
15094;SDS011;7648;52.264;9.632;2022-10-16T11:09:41;0.40;;;0.40;;
15094;SDS011;7648;52.264;9.632;2022-10-16T11:13:47;0.70;;;0.70;;
15094;SDS011;7648;52.264;9.632;2022-10-16T11:17:59;1.50;;;0.50;;
15094;SDS011;7648;52.264;9.632;2022-10-16T11:22:09;0.87;;;0.43;;
15094;SDS011;7648;52.264;9.632;2022-10-16T11:26:17;0.40;;;0.40;;
15094;SDS011;7648;52.264;9.632;2022-10-16T11:30:22;0.50;;;0.47;;
15094;SDS011;7648;52.264;9.632;2022-10-16T11:34:27;1.73;;;0.50;;
15094;SDS011;7648;52.264;9.632;2022-10-16T11:38:34;0.20;;;0.20;;
15094;SDS011;7648;52.264;9.632;2022-10-16T11:42:44;0.37;;;0.37;;
15094;SDS011;7648;52.264;9.632;2022-10-16T11:46:52;0.50;;;0.50;;
15094;SDS011;7648;52.264;9.632;2022-10-16T11:51:08;0.47;;;0.47;;
15094;SDS011;7648;52.264;9.632;2022-10-16T11:55:15;0.40;;;0.40;;
15094;SDS011;7648;52.264;9.632;2022-10-16T11:59:21;0.50;;;0.50;;
15094;SDS011;7648;52.264;9.632;2022-10-16T12:03:33;0.73;;;0.40;;
15094;SDS011;7648;52.264;9.632;2022-10-16T12:07:44;0.30;;;0.30;;
15094;SDS011;7648;52.264;9.632;2022-10-16T12:11:51;0.40;;;0.40;;
15094;SDS011;7648;52.264;9.632;2022-10-16T12:16:03;0.40;;;0.30;;
15094;SDS011;7648;52.264;9.632;2022-10-16T12:20:24;0.30;;;0.20;;
15094;SDS011;7648;52.264;9.632;2022-10-16T12:24:35;0.33;;;0.30;;
15094;SDS011;7648;52.264;9.632;2022-10-16T12:28:39;0.53;;;0.50;;
15094;SDS011;7648;52.264;9.632;2022-10-16T12:32:41;0.60;;;0.40;;
15094;SDS011;7648;52.264;9.632;2022-10-16T12:36:43;0.40;;;0.40;;
15094;SDS011;7648;52.264;9.632;2022-10-16T12:40:47;1.10;;;0.40;;
15094;SDS011;7648;52.264;9.632;2022-10-16T12:44:57;0.30;;;0.30;;
15094;SDS011;7648;52.264;9.632;2022-10-16T12:49:05;0.50;;;0.20;;
15094;SDS011;7648;52.264;9.632;2022-10-16T12:53:19;0.37;;;0.37;;
15094;SDS011;7648;52.264;9.632;2022-10-16T12:57:29;0.30;;;0.30;;
15094;SDS011;7648;52.264;9.632;2022-10-16T13:01:41;0.40;;;0.30;;
15094;SDS011;7648;52.264;9.632;2022-10-16T13:05:55;0.70;;;0.30;;
15094;SDS011;7648;52.264;9.632;2022-10-16T13:10:09;1.07;;;0.30;;
15094;SDS011;7648;52.264;9.632;2022-10-16T13:14:26;1.23;;;0.33;;
15094;SDS011;7648;52.264;9.632;2022-10-16T13:18:50;0.30;;;0.30;;
15094;SDS011;7648;52.264;9.632;2022-10-16T13:23:05;0.40;;;0.37;;
15094;SDS011;7648;52.264;9.632;2022-10-16T13:27:18;0.30;;;0.30;;
15094;SDS011;7648;52.264;9.632;2022-10-16T13:31:28;0.20;;;0.20;;
15094;SDS011;7648;52.264;9.632;2022-10-16T13:35:32;0.27;;;0.27;;
15094;SDS011;7648;52.264;9.632;2022-10-16T13:39:35;1.80;;;0.53;;
15094;SDS011;7648;52.264;9.632;2022-10-16T13:43:40;1.33;;;0.30;;
15094;SDS011;7648;52.264;9.632;2022-10-16T13:47:45;0.77;;;0.37;;
15094;SDS011;7648;52.264;9.632;2022-10-16T13:51:54;0.57;;;0.40;;
15094;SDS011;7648;52.264;9.632;2022-10-16T13:55:56;0.30;;;0.30;;
15094;SDS011;7648;52.264;9.632;2022-10-16T14:00:00;0.60;;;0.30;;
15094;SDS011;7648;52.264;9.632;2022-10-16T14:04:07;0.50;;;0.50;;
15094;SDS011;7648;52.264;9.632;2022-10-16T14:08:11;0.70;;;0.50;;
15094;SDS011;7648;52.264;9.632;2022-10-16T14:12:13;0.30;;;0.30;;
15094;SDS011;7648;52.264;9.632;2022-10-16T14:16:16;0.30;;;0.30;;
15094;SDS011;7648;52.264;9.632;2022-10-16T14:20:24;0.40;;;0.40;;
15094;SDS011;7648;52.264;9.632;2022-10-16T14:24:31;0.20;;;0.20;;
15094;SDS011;7648;52.264;9.632;2022-10-16T14:28:35;0.53;;;0.53;;
15094;SDS011;7648;52.264;9.632;2022-10-16T14:32:40;0.57;;;0.57;;
15094;SDS011;7648;52.264;9.632;2022-10-16T14:36:44;0.80;;;0.40;;
15094;SDS011;7648;52.264;9.632;2022-10-16T14:40:47;0.30;;;0.30;;
15094;SDS011;7648;52.264;9.632;2022-10-16T14:44:50;0.37;;;0.30;;
15094;SDS011;7648;52.264;9.632;2022-10-16T14:48:56;0.80;;;0.80;;
15094;SDS011;7648;52.264;9.632;2022-10-16T14:53:04;0.50;;;0.50;;
15094;SDS011;7648;52.264;9.632;2022-10-16T14:57:16;0.90;;;0.30;;
15094;SDS011;7648;52.264;9.632;2022-10-16T15:01:20;0.67;;;0.50;;
15094;SDS011;7648;52.264;9.632;2022-10-16T15:05:23;0.37;;;0.20;;
15094;SDS011;7648;52.264;9.632;2022-10-16T15:09:27;0.40;;;0.40;;
15094;SDS011;7648;52.264;9.632;2022-10-16T15:13:29;0.30;;;0.30;;
15094;SDS011;7648;52.264;9.632;2022-10-16T15:17:31;0.50;;;0.50;;
15094;SDS011;7648;52.264;9.632;2022-10-16T15:21:33;0.50;;;0.50;;
15094;SDS011;7648;52.264;9.632;2022-10-16T15:25:37;0.33;;;0.33;;
15094;SDS011;7648;52.264;9.632;2022-10-16T15:29:42;0.57;;;0.40;;
15094;SDS011;7648;52.264;9.632;2022-10-16T15:33:44;0.40;;;0.40;;
15094;SDS011;7648;52.264;9.632;2022-10-16T15:37:53;0.40;;;0.40;;
15094;SDS011;7648;52.264;9.632;2022-10-16T15:41:56;0.63;;;0.37;;
15094;SDS011;7648;52.264;9.632;2022-10-16T15:45:59;0.30;;;0.30;;
15094;SDS011;7648;52.264;9.632;2022-10-16T15:50:02;0.67;;;0.47;;
15094;SDS011;7648;52.264;9.632;2022-10-16T15:54:05;0.33;;;0.33;;
15094;SDS011;7648;52.264;9.632;2022-10-16T15:58:08;0.93;;;0.60;;
15094;SDS011;7648;52.264;9.632;2022-10-16T16:02:10;1.03;;;0.70;;
15094;SDS011;7648;52.264;9.632;2022-10-16T16:06:13;0.90;;;0.90;;
15094;SDS011;7648;52.264;9.632;2022-10-16T16:10:15;0.90;;;0.90;;
15094;SDS011;7648;52.264;9.632;2022-10-16T16:14:19;1.03;;;0.60;;
15094;SDS011;7648;52.264;9.632;2022-10-16T16:18:21;0.50;;;0.50;;
15094;SDS011;7648;52.264;9.632;2022-10-16T16:22:23;0.50;;;0.50;;
15094;SDS011;7648;52.264;9.632;2022-10-16T16:26:26;1.23;;;0.80;;
15094;SDS011;7648;52.264;9.632;2022-10-16T16:30:33;0.93;;;0.50;;
15094;SDS011;7648;52.264;9.632;2022-10-16T16:34:35;0.57;;;0.50;;
15094;SDS011;7648;52.264;9.632;2022-10-16T16:38:37;0.30;;;0.30;;
15094;SDS011;7648;52.264;9.632;2022-10-16T16:42:39;0.60;;;0.60;;
15094;SDS011;7648;52.264;9.632;2022-10-16T16:46:43;0.77;;;0.77;;
15094;SDS011;7648;52.264;9.632;2022-10-16T16:50:46;1.20;;;1.20;;
15094;SDS011;7648;52.264;9.632;2022-10-16T16:54:48;1.70;;;1.60;;
15094;SDS011;7648;52.264;9.632;2022-10-16T16:58:52;1.03;;;0.93;;
15094;SDS011;7648;52.264;9.632;2022-10-16T17:02:57;2.33;;;1.10;;
15094;SDS011;7648;52.264;9.632;2022-10-16T17:06:59;0.87;;;0.87;;
15094;SDS011;7648;52.264;9.632;2022-10-16T17:11:01;1.90;;;0.90;;
15094;SDS011;7648;52.264;9.632;2022-10-16T17:15:03;0.83;;;0.80;;
15094;SDS011;7648;52.264;9.632;2022-10-16T17:19:08;0.83;;;0.83;;
15094;SDS011;7648;52.264;9.632;2022-10-16T17:23:13;0.80;;;0.77;;
15094;SDS011;7648;52.264;9.632;2022-10-16T17:27:16;1.17;;;1.07;;
15094;SDS011;7648;52.264;9.632;2022-10-16T17:31:19;0.93;;;0.80;;
15094;SDS011;7648;52.264;9.632;2022-10-16T17:35:23;1.20;;;1.20;;
15094;SDS011;7648;52.264;9.632;2022-10-16T17:39:25;1.70;;;1.70;;
15094;SDS011;7648;52.264;9.632;2022-10-16T17:43:27;1.30;;;1.30;;
15094;SDS011;7648;52.264;9.632;2022-10-16T17:47:29;1.00;;;1.00;;
15094;SDS011;7648;52.264;9.632;2022-10-16T17:51:32;1.27;;;1.27;;
15094;SDS011;7648;52.264;9.632;2022-10-16T17:55:36;1.10;;;1.10;;
15094;SDS011;7648;52.264;9.632;2022-10-16T17:59:39;1.23;;;1.23;;
15094;SDS011;7648;52.264;9.632;2022-10-16T18:03:41;0.83;;;0.83;;
15094;SDS011;7648;52.264;9.632;2022-10-16T18:07:44;0.90;;;0.90;;
15094;SDS011;7648;52.264;9.632;2022-10-16T18:11:47;1.00;;;1.00;;
15094;SDS011;7648;52.264;9.632;2022-10-16T18:15:58;2.67;;;1.10;;
15094;SDS011;7648;52.264;9.632;2022-10-16T18:20:00;0.90;;;0.90;;
15094;SDS011;7648;52.264;9.632;2022-10-16T18:24:04;1.10;;;1.10;;
15094;SDS011;7648;52.264;9.632;2022-10-16T18:28:06;0.90;;;0.90;;
15094;SDS011;7648;52.264;9.632;2022-10-16T18:32:08;1.03;;;1.03;;
15094;SDS011;7648;52.264;9.632;2022-10-16T18:36:10;0.90;;;0.90;;
15094;SDS011;7648;52.264;9.632;2022-10-16T18:40:13;1.10;;;1.10;;
15094;SDS011;7648;52.264;9.632;2022-10-16T18:44:16;1.20;;;1.20;;
15094;SDS011;7648;52.264;9.632;2022-10-16T18:48:18;1.13;;;1.13;;
15094;SDS011;7648;52.264;9.632;2022-10-16T18:52:20;1.77;;;1.67;;
15094;SDS011;7648;52.264;9.632;2022-10-16T18:56:25;2.17;;;1.97;;
15094;SDS011;7648;52.264;9.632;2022-10-16T19:00:27;1.70;;;1.60;;
15094;SDS011;7648;52.264;9.632;2022-10-16T19:04:29;1.80;;;1.70;;
15094;SDS011;7648;52.264;9.632;2022-10-16T19:08:31;1.50;;;1.50;;
15094;SDS011;7648;52.264;9.632;2022-10-16T19:12:35;1.90;;;1.67;;
15094;SDS011;7648;52.264;9.632;2022-10-16T19:16:37;1.73;;;1.63;;
15094;SDS011;7648;52.264;9.632;2022-10-16T19:20:41;1.90;;;1.60;;
15094;SDS011;7648;52.264;9.632;2022-10-16T19:24:43;2.07;;;1.97;;
15094;SDS011;7648;52.264;9.632;2022-10-16T19:28:47;1.70;;;1.60;;
15094;SDS011;7648;52.264;9.632;2022-10-16T19:32:49;2.10;;;2.00;;
15094;SDS011;7648;52.264;9.632;2022-10-16T19:36:52;1.50;;;1.43;;
15094;SDS011;7648;52.264;9.632;2022-10-16T19:40:54;1.20;;;1.20;;
15094;SDS011;7648;52.264;9.632;2022-10-16T19:44:57;1.50;;;1.50;;
15094;SDS011;7648;52.264;9.632;2022-10-16T19:48:59;2.87;;;2.13;;
15094;SDS011;7648;52.264;9.632;2022-10-16T19:53:03;2.03;;;1.93;;
15094;SDS011;7648;52.264;9.632;2022-10-16T19:57:05;2.20;;;2.10;;
15094;SDS011;7648;52.264;9.632;2022-10-16T20:01:09;1.77;;;1.67;;
15094;SDS011;7648;52.264;9.632;2022-10-16T20:05:13;2.10;;;2.00;;
15094;SDS011;7648;52.264;9.632;2022-10-16T20:09:15;3.90;;;3.57;;
15094;SDS011;7648;52.264;9.632;2022-10-16T20:13:17;1.83;;;1.73;;
15094;SDS011;7648;52.264;9.632;2022-10-16T20:17:21;1.70;;;1.60;;
15094;SDS011;7648;52.264;9.632;2022-10-16T20:21:24;1.63;;;1.53;;
15094;SDS011;7648;52.264;9.632;2022-10-16T20:25:28;5.87;;;4.53;;
15094;SDS011;7648;52.264;9.632;2022-10-16T20:29:30;4.77;;;3.07;;
15094;SDS011;7648;52.264;9.632;2022-10-16T20:33:33;2.80;;;2.60;;
15094;SDS011;7648;52.264;9.632;2022-10-16T20:37:35;2.20;;;2.00;;
15094;SDS011;7648;52.264;9.632;2022-10-16T20:41:37;1.90;;;1.80;;
15094;SDS011;7648;52.264;9.632;2022-10-16T20:45:39;2.10;;;2.00;;
15094;SDS011;7648;52.264;9.632;2022-10-16T20:49:42;1.70;;;1.60;;
15094;SDS011;7648;52.264;9.632;2022-10-16T20:53:45;1.43;;;1.43;;
15094;SDS011;7648;52.264;9.632;2022-10-16T20:57:48;1.60;;;1.50;;
15094;SDS011;7648;52.264;9.632;2022-10-16T21:01:50;1.27;;;1.27;;
15094;SDS011;7648;52.264;9.632;2022-10-16T21:05:53;1.67;;;1.50;;
15094;SDS011;7648;52.264;9.632;2022-10-16T21:09:55;1.60;;;1.50;;
15094;SDS011;7648;52.264;9.632;2022-10-16T21:13:58;1.60;;;1.50;;
15094;SDS011;7648;52.264;9.632;2022-10-16T21:18:02;1.43;;;1.43;;
15094;SDS011;7648;52.264;9.632;2022-10-16T21:22:06;1.57;;;1.57;;
15094;SDS011;7648;52.264;9.632;2022-10-16T21:26:07;1.83;;;1.73;;
15094;SDS011;7648;52.264;9.632;2022-10-16T21:30:09;2.20;;;1.93;;
15094;SDS011;7648;52.264;9.632;2022-10-16T21:34:12;1.33;;;1.33;;
15094;SDS011;7648;52.264;9.632;2022-10-16T21:38:15;1.63;;;1.53;;
15094;SDS011;7648;52.264;9.632;2022-10-16T21:42:17;1.40;;;1.40;;
15094;SDS011;7648;52.264;9.632;2022-10-16T21:46:20;1.20;;;1.20;;
15094;SDS011;7648;52.264;9.632;2022-10-16T21:50:23;1.43;;;1.33;;
15094;SDS011;7648;52.264;9.632;2022-10-16T21:54:26;1.10;;;1.10;;
15094;SDS011;7648;52.264;9.632;2022-10-16T21:58:29;1.20;;;1.20;;
15094;SDS011;7648;52.264;9.632;2022-10-16T22:02:31;1.40;;;1.40;;
15094;SDS011;7648;52.264;9.632;2022-10-16T22:06:33;1.40;;;1.40;;
15094;SDS011;7648;52.264;9.632;2022-10-16T22:10:37;1.60;;;1.50;;
15094;SDS011;7648;52.264;9.632;2022-10-16T22:14:39;1.90;;;1.30;;
15094;SDS011;7648;52.264;9.632;2022-10-16T22:18:41;1.00;;;1.00;;
15094;SDS011;7648;52.264;9.632;2022-10-16T22:22:43;1.60;;;1.43;;
15094;SDS011;7648;52.264;9.632;2022-10-16T22:26:46;1.27;;;1.20;;
15094;SDS011;7648;52.264;9.632;2022-10-16T22:30:48;1.50;;;1.30;;
15094;SDS011;7648;52.264;9.632;2022-10-16T22:34:50;1.70;;;1.43;;
15094;SDS011;7648;52.264;9.632;2022-10-16T22:38:52;1.63;;;1.53;;
15094;SDS011;7648;52.264;9.632;2022-10-16T22:42:55;1.80;;;1.70;;
15094;SDS011;7648;52.264;9.632;2022-10-16T22:46:57;1.50;;;1.40;;
15094;SDS011;7648;52.264;9.632;2022-10-16T22:50:59;1.70;;;1.60;;
15094;SDS011;7648;52.264;9.632;2022-10-16T22:55:02;1.30;;;1.30;;
15094;SDS011;7648;52.264;9.632;2022-10-16T22:59:06;1.67;;;1.43;;
15094;SDS011;7648;52.264;9.632;2022-10-16T23:03:08;1.77;;;1.67;;
15094;SDS011;7648;52.264;9.632;2022-10-16T23:07:10;1.20;;;1.20;;
15094;SDS011;7648;52.264;9.632;2022-10-16T23:11:12;1.80;;;1.70;;
15094;SDS011;7648;52.264;9.632;2022-10-16T23:15:16;1.37;;;1.30;;
15094;SDS011;7648;52.264;9.632;2022-10-16T23:19:18;1.23;;;1.10;;
15094;SDS011;7648;52.264;9.632;2022-10-16T23:23:20;1.00;;;1.00;;
15094;SDS011;7648;52.264;9.632;2022-10-16T23:27:22;1.23;;;1.23;;
15094;SDS011;7648;52.264;9.632;2022-10-16T23:31:25;1.27;;;1.27;;
15094;SDS011;7648;52.264;9.632;2022-10-16T23:35:28;2.03;;;1.90;;
15094;SDS011;7648;52.264;9.632;2022-10-16T23:39:30;1.70;;;1.30;;
15094;SDS011;7648;52.264;9.632;2022-10-16T23:43:32;1.30;;;1.30;;
15094;SDS011;7648;52.264;9.632;2022-10-16T23:47:35;1.30;;;1.30;;
15094;SDS011;7648;52.264;9.632;2022-10-16T23:51:37;1.20;;;1.20;;
15094;SDS011;7648;52.264;9.632;2022-10-16T23:55:39;1.20;;;1.20;;
15094;SDS011;7648;52.264;9.632;2022-10-16T23:59:41;1.60;;;1.57;;
